San Antonio, Texas
Traffic Map
Current Weather Conditions
San Antonio, Texas
Broken Clouds
Broken Clouds
82°
Feels Like: 82°
Wind Chill: 82° Ceiling: 6500
Heat Index: 82° Visibility: 10mi
Dew Point: 55° Wind: 7mph
Humidity: 39% Direction: 50° (NE)
Pressure: 29.96in Gusts: 0mph
Raw Report DataKSKF 212133Z AUTO 05006KT 10SM BKN065 28/13 A2996 RMK AO2 $
Traffic Incident Summary
Active as of:
Severity:
Category:
InformationThere was an issue retrieving the traffic information for this location. Please try a different location or try again shortly.
Advertisements
Track Severe Weather on mobile